sensor_id;sensor_type;location;lat;lon;timestamp;P1;durP1;ratioP1;P2;durP2;ratioP2
77117;SDS011;66072;50.238;19.228;2023-04-15T00:01:11;7.10;;;4.50;;
77117;SDS011;66072;50.238;19.228;2023-04-15T00:03:39;6.30;;;4.70;;
77117;SDS011;66072;50.238;19.228;2023-04-15T00:06:07;7.40;;;5.30;;
77117;SDS011;66072;50.238;19.228;2023-04-15T00:08:34;7.70;;;5.00;;
77117;SDS011;66072;50.238;19.228;2023-04-15T00:11:02;9.00;;;5.10;;
77117;SDS011;66072;50.238;19.228;2023-04-15T00:13:32;9.60;;;6.00;;
77117;SDS011;66072;50.238;19.228;2023-04-15T00:16:00;8.30;;;5.50;;
77117;SDS011;66072;50.238;19.228;2023-04-15T00:18:28;9.70;;;6.10;;
77117;SDS011;66072;50.238;19.228;2023-04-15T00:20:56;10.10;;;6.40;;
77117;SDS011;66072;50.238;19.228;2023-04-15T00:23:24;8.40;;;5.70;;
77117;SDS011;66072;50.238;19.228;2023-04-15T00:25:52;10.60;;;6.60;;
77117;SDS011;66072;50.238;19.228;2023-04-15T00:28:19;9.40;;;5.40;;
77117;SDS011;66072;50.238;19.228;2023-04-15T00:30:47;6.90;;;5.30;;
77117;SDS011;66072;50.238;19.228;2023-04-15T00:33:14;11.70;;;8.40;;
77117;SDS011;66072;50.238;19.228;2023-04-15T00:35:42;7.60;;;6.30;;
77117;SDS011;66072;50.238;19.228;2023-04-15T00:38:09;7.90;;;6.00;;
77117;SDS011;66072;50.238;19.228;2023-04-15T00:40:37;8.90;;;5.40;;
77117;SDS011;66072;50.238;19.228;2023-04-15T00:43:05;9.20;;;6.30;;
77117;SDS011;66072;50.238;19.228;2023-04-15T00:45:33;7.90;;;4.80;;
77117;SDS011;66072;50.238;19.228;2023-04-15T00:48:00;8.70;;;5.60;;
77117;SDS011;66072;50.238;19.228;2023-04-15T00:50:28;9.10;;;6.20;;
77117;SDS011;66072;50.238;19.228;2023-04-15T00:52:56;8.20;;;5.50;;
77117;SDS011;66072;50.238;19.228;2023-04-15T00:55:23;8.50;;;6.30;;
77117;SDS011;66072;50.238;19.228;2023-04-15T00:57:51;8.70;;;6.00;;
77117;SDS011;66072;50.238;19.228;2023-04-15T01:00:19;9.00;;;6.20;;
77117;SDS011;66072;50.238;19.228;2023-04-15T01:02:47;10.00;;;5.50;;
77117;SDS011;66072;50.238;19.228;2023-04-15T01:05:15;7.00;;;5.30;;
77117;SDS011;66072;50.238;19.228;2023-04-15T01:07:43;10.10;;;6.70;;
77117;SDS011;66072;50.238;19.228;2023-04-15T01:10:11;13.20;;;7.80;;
77117;SDS011;66072;50.238;19.228;2023-04-15T01:12:38;11.80;;;6.80;;
77117;SDS011;66072;50.238;19.228;2023-04-15T01:15:07;9.30;;;6.00;;
77117;SDS011;66072;50.238;19.228;2023-04-15T01:17:34;9.00;;;6.40;;
77117;SDS011;66072;50.238;19.228;2023-04-15T01:20:02;8.70;;;6.60;;
77117;SDS011;66072;50.238;19.228;2023-04-15T01:22:30;10.90;;;7.00;;
77117;SDS011;66072;50.238;19.228;2023-04-15T01:25:01;9.40;;;6.20;;
77117;SDS011;66072;50.238;19.228;2023-04-15T01:27:33;9.30;;;6.40;;
77117;SDS011;66072;50.238;19.228;2023-04-15T01:30:01;8.50;;;6.30;;
77117;SDS011;66072;50.238;19.228;2023-04-15T01:32:29;10.60;;;6.30;;
77117;SDS011;66072;50.238;19.228;2023-04-15T01:34:57;8.60;;;5.40;;
77117;SDS011;66072;50.238;19.228;2023-04-15T01:37:24;8.90;;;5.60;;
77117;SDS011;66072;50.238;19.228;2023-04-15T01:39:52;6.90;;;4.80;;
77117;SDS011;66072;50.238;19.228;2023-04-15T01:42:20;8.20;;;5.50;;
77117;SDS011;66072;50.238;19.228;2023-04-15T01:44:47;5.90;;;4.00;;
77117;SDS011;66072;50.238;19.228;2023-04-15T01:47:15;8.10;;;5.00;;
77117;SDS011;66072;50.238;19.228;2023-04-15T01:49:43;7.10;;;5.40;;
77117;SDS011;66072;50.238;19.228;2023-04-15T01:52:10;9.40;;;5.80;;
77117;SDS011;66072;50.238;19.228;2023-04-15T01:54:38;6.70;;;5.50;;
77117;SDS011;66072;50.238;19.228;2023-04-15T01:57:05;9.40;;;6.00;;
77117;SDS011;66072;50.238;19.228;2023-04-15T01:59:33;8.00;;;6.30;;
77117;SDS011;66072;50.238;19.228;2023-04-15T02:02:00;9.60;;;5.70;;
77117;SDS011;66072;50.238;19.228;2023-04-15T02:04:28;7.80;;;5.50;;
77117;SDS011;66072;50.238;19.228;2023-04-15T02:06:56;7.90;;;5.20;;
77117;SDS011;66072;50.238;19.228;2023-04-15T02:09:23;7.50;;;5.30;;
77117;SDS011;66072;50.238;19.228;2023-04-15T02:11:51;7.30;;;5.00;;
77117;SDS011;66072;50.238;19.228;2023-04-15T02:14:19;6.90;;;5.00;;
77117;SDS011;66072;50.238;19.228;2023-04-15T02:16:46;7.20;;;4.80;;
77117;SDS011;66072;50.238;19.228;2023-04-15T02:19:14;6.40;;;5.00;;
77117;SDS011;66072;50.238;19.228;2023-04-15T02:21:41;7.80;;;5.00;;
77117;SDS011;66072;50.238;19.228;2023-04-15T02:24:09;6.50;;;4.60;;
77117;SDS011;66072;50.238;19.228;2023-04-15T02:26:36;8.10;;;5.60;;
77117;SDS011;66072;50.238;19.228;2023-04-15T02:29:04;9.20;;;6.60;;
77117;SDS011;66072;50.238;19.228;2023-04-15T02:31:32;9.80;;;7.80;;
77117;SDS011;66072;50.238;19.228;2023-04-15T02:34:00;11.20;;;8.40;;
77117;SDS011;66072;50.238;19.228;2023-04-15T02:36:27;10.50;;;7.40;;
77117;SDS011;66072;50.238;19.228;2023-04-15T02:38:55;12.30;;;8.10;;
77117;SDS011;66072;50.238;19.228;2023-04-15T02:41:22;13.30;;;9.40;;
77117;SDS011;66072;50.238;19.228;2023-04-15T02:43:50;9.20;;;6.50;;
77117;SDS011;66072;50.238;19.228;2023-04-15T02:46:17;10.90;;;7.10;;
77117;SDS011;66072;50.238;19.228;2023-04-15T02:48:45;12.60;;;9.20;;
77117;SDS011;66072;50.238;19.228;2023-04-15T02:53:41;22.80;;;17.00;;
77117;SDS011;66072;50.238;19.228;2023-04-15T02:56:09;16.70;;;12.60;;
77117;SDS011;66072;50.238;19.228;2023-04-15T02:58:36;21.30;;;15.60;;
77117;SDS011;66072;50.238;19.228;2023-04-15T03:04:45;19.60;;;14.50;;
77117;SDS011;66072;50.238;19.228;2023-04-15T03:07:12;18.80;;;14.30;;
77117;SDS011;66072;50.238;19.228;2023-04-15T03:09:40;20.10;;;14.80;;
77117;SDS011;66072;50.238;19.228;2023-04-15T03:12:08;17.10;;;12.30;;
77117;SDS011;66072;50.238;19.228;2023-04-15T03:14:35;15.80;;;10.90;;
77117;SDS011;66072;50.238;19.228;2023-04-15T03:17:03;14.80;;;10.30;;
77117;SDS011;66072;50.238;19.228;2023-04-15T03:19:31;13.50;;;10.00;;
77117;SDS011;66072;50.238;19.228;2023-04-15T03:21:58;14.10;;;10.80;;
77117;SDS011;66072;50.238;19.228;2023-04-15T03:24:26;14.60;;;10.00;;
77117;SDS011;66072;50.238;19.228;2023-04-15T03:26:53;13.60;;;10.50;;
77117;SDS011;66072;50.238;19.228;2023-04-15T03:29:21;14.40;;;10.50;;
77117;SDS011;66072;50.238;19.228;2023-04-15T03:31:49;14.80;;;10.40;;
77117;SDS011;66072;50.238;19.228;2023-04-15T03:34:16;15.90;;;10.90;;
77117;SDS011;66072;50.238;19.228;2023-04-15T03:36:44;18.10;;;11.50;;
77117;SDS011;66072;50.238;19.228;2023-04-15T03:39:12;15.90;;;10.50;;
77117;SDS011;66072;50.238;19.228;2023-04-15T03:41:40;12.00;;;8.40;;
77117;SDS011;66072;50.238;19.228;2023-04-15T03:44:08;12.30;;;7.80;;
77117;SDS011;66072;50.238;19.228;2023-04-15T03:46:35;14.20;;;10.30;;
77117;SDS011;66072;50.238;19.228;2023-04-15T03:49:05;20.30;;;15.50;;
77117;SDS011;66072;50.238;19.228;2023-04-15T03:51:33;20.90;;;15.30;;
77117;SDS011;66072;50.238;19.228;2023-04-15T03:54:00;18.60;;;14.10;;
77117;SDS011;66072;50.238;19.228;2023-04-15T03:56:28;20.30;;;14.60;;
77117;SDS011;66072;50.238;19.228;2023-04-15T03:58:55;13.80;;;10.80;;
77117;SDS011;66072;50.238;19.228;2023-04-15T04:01:23;12.80;;;9.30;;
77117;SDS011;66072;50.238;19.228;2023-04-15T04:03:51;11.50;;;8.80;;
77117;SDS011;66072;50.238;19.228;2023-04-15T04:06:18;12.40;;;8.00;;
77117;SDS011;66072;50.238;19.228;2023-04-15T04:08:46;11.80;;;7.50;;
77117;SDS011;66072;50.238;19.228;2023-04-15T04:11:14;11.20;;;7.70;;
77117;SDS011;66072;50.238;19.228;2023-04-15T04:13:41;12.80;;;6.60;;
77117;SDS011;66072;50.238;19.228;2023-04-15T04:16:09;11.60;;;8.60;;
77117;SDS011;66072;50.238;19.228;2023-04-15T04:18:36;17.00;;;14.00;;
77117;SDS011;66072;50.238;19.228;2023-04-15T04:21:04;19.70;;;14.90;;
77117;SDS011;66072;50.238;19.228;2023-04-15T04:23:32;19.30;;;17.10;;
77117;SDS011;66072;50.238;19.228;2023-04-15T04:25:59;25.30;;;19.50;;
77117;SDS011;66072;50.238;19.228;2023-04-15T04:28:27;20.40;;;17.10;;
77117;SDS011;66072;50.238;19.228;2023-04-15T04:30:55;16.80;;;11.60;;
77117;SDS011;66072;50.238;19.228;2023-04-15T04:33:22;16.60;;;13.20;;
77117;SDS011;66072;50.238;19.228;2023-04-15T04:35:50;19.60;;;16.10;;
77117;SDS011;66072;50.238;19.228;2023-04-15T04:38:17;20.50;;;17.10;;
77117;SDS011;66072;50.238;19.228;2023-04-15T04:40:45;21.90;;;18.10;;
77117;SDS011;66072;50.238;19.228;2023-04-15T04:43:12;24.00;;;18.50;;
77117;SDS011;66072;50.238;19.228;2023-04-15T04:45:40;20.30;;;16.60;;
77117;SDS011;66072;50.238;19.228;2023-04-15T04:48:08;18.60;;;14.30;;
77117;SDS011;66072;50.238;19.228;2023-04-15T04:50:35;18.10;;;13.60;;
77117;SDS011;66072;50.238;19.228;2023-04-15T04:53:03;16.90;;;11.80;;
77117;SDS011;66072;50.238;19.228;2023-04-15T04:55:31;13.10;;;8.80;;
77117;SDS011;66072;50.238;19.228;2023-04-15T04:57:58;11.50;;;8.20;;
77117;SDS011;66072;50.238;19.228;2023-04-15T05:00:26;9.90;;;7.50;;
77117;SDS011;66072;50.238;19.228;2023-04-15T05:02:53;8.10;;;5.20;;
77117;SDS011;66072;50.238;19.228;2023-04-15T05:05:21;9.70;;;7.30;;
77117;SDS011;66072;50.238;19.228;2023-04-15T05:07:49;9.50;;;6.90;;
77117;SDS011;66072;50.238;19.228;2023-04-15T05:10:17;11.40;;;7.50;;
77117;SDS011;66072;50.238;19.228;2023-04-15T05:12:44;11.50;;;8.00;;
77117;SDS011;66072;50.238;19.228;2023-04-15T05:15:12;9.40;;;7.60;;
77117;SDS011;66072;50.238;19.228;2023-04-15T05:17:39;13.20;;;9.30;;
77117;SDS011;66072;50.238;19.228;2023-04-15T05:20:07;11.60;;;8.70;;
77117;SDS011;66072;50.238;19.228;2023-04-15T05:22:35;13.70;;;8.80;;
77117;SDS011;66072;50.238;19.228;2023-04-15T05:25:03;16.30;;;12.40;;
77117;SDS011;66072;50.238;19.228;2023-04-15T05:27:31;23.70;;;15.50;;
77117;SDS011;66072;50.238;19.228;2023-04-15T05:29:58;17.00;;;12.40;;
77117;SDS011;66072;50.238;19.228;2023-04-15T05:32:26;15.60;;;11.80;;
77117;SDS011;66072;50.238;19.228;2023-04-15T05:34:54;16.00;;;11.80;;
77117;SDS011;66072;50.238;19.228;2023-04-15T05:37:21;15.70;;;12.00;;
77117;SDS011;66072;50.238;19.228;2023-04-15T05:39:49;15.60;;;11.10;;
77117;SDS011;66072;50.238;19.228;2023-04-15T05:42:16;11.60;;;8.60;;
77117;SDS011;66072;50.238;19.228;2023-04-15T05:44:44;13.30;;;8.10;;
77117;SDS011;66072;50.238;19.228;2023-04-15T05:47:11;11.50;;;7.20;;
77117;SDS011;66072;50.238;19.228;2023-04-15T05:49:39;9.60;;;6.20;;
77117;SDS011;66072;50.238;19.228;2023-04-15T05:52:06;10.00;;;6.30;;
77117;SDS011;66072;50.238;19.228;2023-04-15T05:54:34;7.90;;;4.90;;
77117;SDS011;66072;50.238;19.228;2023-04-15T05:57:01;8.90;;;5.30;;
77117;SDS011;66072;50.238;19.228;2023-04-15T05:59:29;9.30;;;5.40;;
77117;SDS011;66072;50.238;19.228;2023-04-15T06:01:57;8.20;;;5.40;;
77117;SDS011;66072;50.238;19.228;2023-04-15T06:04:24;9.10;;;5.50;;
77117;SDS011;66072;50.238;19.228;2023-04-15T06:06:52;9.40;;;5.80;;
77117;SDS011;66072;50.238;19.228;2023-04-15T06:09:20;9.50;;;5.90;;
77117;SDS011;66072;50.238;19.228;2023-04-15T06:11:47;9.80;;;6.60;;
77117;SDS011;66072;50.238;19.228;2023-04-15T06:14:15;10.80;;;6.40;;
77117;SDS011;66072;50.238;19.228;2023-04-15T06:16:42;11.10;;;6.90;;
77117;SDS011;66072;50.238;19.228;2023-04-15T06:19:10;12.30;;;6.30;;
77117;SDS011;66072;50.238;19.228;2023-04-15T06:21:37;8.90;;;4.60;;
77117;SDS011;66072;50.238;19.228;2023-04-15T06:24:05;9.60;;;5.60;;
77117;SDS011;66072;50.238;19.228;2023-04-15T06:26:33;9.00;;;5.90;;
77117;SDS011;66072;50.238;19.228;2023-04-15T06:29:00;13.00;;;7.20;;
77117;SDS011;66072;50.238;19.228;2023-04-15T06:31:28;10.40;;;6.80;;
77117;SDS011;66072;50.238;19.228;2023-04-15T06:33:56;10.90;;;7.30;;
77117;SDS011;66072;50.238;19.228;2023-04-15T06:36:24;11.50;;;6.50;;
77117;SDS011;66072;50.238;19.228;2023-04-15T06:38:51;11.00;;;6.20;;
77117;SDS011;66072;50.238;19.228;2023-04-15T06:41:19;8.90;;;5.20;;
77117;SDS011;66072;50.238;19.228;2023-04-15T06:43:46;10.60;;;6.50;;
77117;SDS011;66072;50.238;19.228;2023-04-15T06:46:14;9.30;;;6.30;;
77117;SDS011;66072;50.238;19.228;2023-04-15T06:48:42;8.00;;;5.80;;
77117;SDS011;66072;50.238;19.228;2023-04-15T06:51:09;10.20;;;6.10;;
77117;SDS011;66072;50.238;19.228;2023-04-15T06:53:37;7.90;;;5.50;;
77117;SDS011;66072;50.238;19.228;2023-04-15T06:56:05;8.50;;;5.30;;
77117;SDS011;66072;50.238;19.228;2023-04-15T06:58:34;6.60;;;4.20;;
77117;SDS011;66072;50.238;19.228;2023-04-15T07:01:01;6.40;;;4.00;;
77117;SDS011;66072;50.238;19.228;2023-04-15T07:03:29;7.30;;;3.30;;
77117;SDS011;66072;50.238;19.228;2023-04-15T07:05:59;6.90;;;4.30;;
77117;SDS011;66072;50.238;19.228;2023-04-15T07:08:26;8.00;;;4.00;;
77117;SDS011;66072;50.238;19.228;2023-04-15T07:10:54;5.00;;;3.00;;
77117;SDS011;66072;50.238;19.228;2023-04-15T07:13:21;7.30;;;4.00;;
77117;SDS011;66072;50.238;19.228;2023-04-15T07:15:49;6.30;;;3.20;;
77117;SDS011;66072;50.238;19.228;2023-04-15T07:18:16;9.10;;;5.30;;
77117;SDS011;66072;50.238;19.228;2023-04-15T07:20:44;7.70;;;5.00;;
77117;SDS011;66072;50.238;19.228;2023-04-15T07:23:12;7.40;;;4.60;;
77117;SDS011;66072;50.238;19.228;2023-04-15T07:25:39;9.00;;;5.40;;
77117;SDS011;66072;50.238;19.228;2023-04-15T07:28:07;10.10;;;5.30;;
77117;SDS011;66072;50.238;19.228;2023-04-15T07:30:34;8.80;;;4.90;;
77117;SDS011;66072;50.238;19.228;2023-04-15T07:33:02;7.00;;;3.80;;
77117;SDS011;66072;50.238;19.228;2023-04-15T07:35:30;7.40;;;4.70;;
77117;SDS011;66072;50.238;19.228;2023-04-15T07:37:57;6.80;;;3.90;;
77117;SDS011;66072;50.238;19.228;2023-04-15T07:40:25;6.30;;;4.00;;
77117;SDS011;66072;50.238;19.228;2023-04-15T07:42:52;5.60;;;3.40;;
77117;SDS011;66072;50.238;19.228;2023-04-15T07:45:20;6.70;;;4.00;;
77117;SDS011;66072;50.238;19.228;2023-04-15T07:47:48;8.50;;;5.00;;
77117;SDS011;66072;50.238;19.228;2023-04-15T07:50:16;4.60;;;2.70;;
77117;SDS011;66072;50.238;19.228;2023-04-15T07:52:43;4.40;;;2.10;;
77117;SDS011;66072;50.238;19.228;2023-04-15T07:55:11;6.60;;;4.20;;
77117;SDS011;66072;50.238;19.228;2023-04-15T07:57:39;6.20;;;3.30;;
77117;SDS011;66072;50.238;19.228;2023-04-15T08:00:07;5.60;;;3.00;;
77117;SDS011;66072;50.238;19.228;2023-04-15T08:02:35;4.70;;;3.00;;
77117;SDS011;66072;50.238;19.228;2023-04-15T08:05:06;5.10;;;2.70;;
77117;SDS011;66072;50.238;19.228;2023-04-15T08:07:34;4.00;;;2.50;;
77117;SDS011;66072;50.238;19.228;2023-04-15T08:10:04;3.80;;;2.20;;
77117;SDS011;66072;50.238;19.228;2023-04-15T08:12:32;3.70;;;2.20;;
77117;SDS011;66072;50.238;19.228;2023-04-15T08:14:59;4.70;;;2.10;;
77117;SDS011;66072;50.238;19.228;2023-04-15T08:17:27;3.80;;;2.10;;
77117;SDS011;66072;50.238;19.228;2023-04-15T08:19:54;7.40;;;3.50;;
77117;SDS011;66072;50.238;19.228;2023-04-15T08:22:22;5.40;;;2.40;;
77117;SDS011;66072;50.238;19.228;2023-04-15T08:24:49;4.20;;;2.30;;
77117;SDS011;66072;50.238;19.228;2023-04-15T08:27:17;4.40;;;2.40;;
77117;SDS011;66072;50.238;19.228;2023-04-15T08:29:45;3.80;;;1.90;;
77117;SDS011;66072;50.238;19.228;2023-04-15T08:32:12;4.10;;;2.20;;
77117;SDS011;66072;50.238;19.228;2023-04-15T08:34:40;5.30;;;2.30;;
77117;SDS011;66072;50.238;19.228;2023-04-15T08:37:08;4.70;;;2.20;;
77117;SDS011;66072;50.238;19.228;2023-04-15T08:39:37;4.50;;;1.40;;
77117;SDS011;66072;50.238;19.228;2023-04-15T08:42:07;4.20;;;1.80;;
77117;SDS011;66072;50.238;19.228;2023-04-15T08:44:39;3.30;;;1.80;;
77117;SDS011;66072;50.238;19.228;2023-04-15T08:47:07;3.00;;;1.90;;
77117;SDS011;66072;50.238;19.228;2023-04-15T08:49:38;3.30;;;1.60;;
77117;SDS011;66072;50.238;19.228;2023-04-15T08:52:06;3.70;;;2.00;;
77117;SDS011;66072;50.238;19.228;2023-04-15T08:54:35;3.40;;;1.30;;
77117;SDS011;66072;50.238;19.228;2023-04-15T08:57:04;3.20;;;1.70;;
77117;SDS011;66072;50.238;19.228;2023-04-15T08:59:32;2.80;;;1.40;;
77117;SDS011;66072;50.238;19.228;2023-04-15T09:02:00;3.30;;;1.60;;
77117;SDS011;66072;50.238;19.228;2023-04-15T09:04:28;2.60;;;1.30;;
77117;SDS011;66072;50.238;19.228;2023-04-15T09:06:56;3.30;;;0.90;;
77117;SDS011;66072;50.238;19.228;2023-04-15T09:09:24;3.00;;;1.60;;
77117;SDS011;66072;50.238;19.228;2023-04-15T09:11:51;3.10;;;1.60;;
77117;SDS011;66072;50.238;19.228;2023-04-15T09:14:19;2.70;;;1.40;;
77117;SDS011;66072;50.238;19.228;2023-04-15T09:16:56;3.10;;;1.40;;
77117;SDS011;66072;50.238;19.228;2023-04-15T09:19:24;2.70;;;1.50;;
77117;SDS011;66072;50.238;19.228;2023-04-15T09:21:55;3.60;;;1.60;;
77117;SDS011;66072;50.238;19.228;2023-04-15T09:24:32;2.80;;;1.30;;
77117;SDS011;66072;50.238;19.228;2023-04-15T09:27:02;2.30;;;1.20;;
77117;SDS011;66072;50.238;19.228;2023-04-15T09:29:30;3.80;;;1.50;;
77117;SDS011;66072;50.238;19.228;2023-04-15T09:32:11;3.00;;;1.30;;
77117;SDS011;66072;50.238;19.228;2023-04-15T09:34:39;3.80;;;1.50;;
77117;SDS011;66072;50.238;19.228;2023-04-15T09:37:07;4.20;;;1.70;;
77117;SDS011;66072;50.238;19.228;2023-04-15T09:39:44;3.90;;;2.20;;
77117;SDS011;66072;50.238;19.228;2023-04-15T09:42:13;5.20;;;2.30;;
77117;SDS011;66072;50.238;19.228;2023-04-15T09:44:40;4.60;;;2.40;;
77117;SDS011;66072;50.238;19.228;2023-04-15T09:47:08;4.30;;;2.20;;
77117;SDS011;66072;50.238;19.228;2023-04-15T09:49:35;5.20;;;2.40;;
77117;SDS011;66072;50.238;19.228;2023-04-15T09:52:03;4.50;;;2.70;;
77117;SDS011;66072;50.238;19.228;2023-04-15T09:54:36;6.20;;;3.00;;
77117;SDS011;66072;50.238;19.228;2023-04-15T09:57:05;5.40;;;2.90;;
77117;SDS011;66072;50.238;19.228;2023-04-15T09:59:34;5.70;;;2.60;;
77117;SDS011;66072;50.238;19.228;2023-04-15T10:02:05;4.50;;;2.40;;
77117;SDS011;66072;50.238;19.228;2023-04-15T10:04:37;5.30;;;2.90;;
77117;SDS011;66072;50.238;19.228;2023-04-15T10:07:10;4.30;;;2.60;;
77117;SDS011;66072;50.238;19.228;2023-04-15T10:09:38;6.00;;;3.10;;
77117;SDS011;66072;50.238;19.228;2023-04-15T10:12:07;4.50;;;3.10;;
77117;SDS011;66072;50.238;19.228;2023-04-15T10:14:35;5.20;;;2.60;;
77117;SDS011;66072;50.238;19.228;2023-04-15T10:17:05;3.60;;;2.50;;
77117;SDS011;66072;50.238;19.228;2023-04-15T10:19:35;4.20;;;2.30;;
77117;SDS011;66072;50.238;19.228;2023-04-15T10:22:03;4.60;;;2.50;;
77117;SDS011;66072;50.238;19.228;2023-04-15T10:24:32;3.90;;;2.10;;
77117;SDS011;66072;50.238;19.228;2023-04-15T10:27:01;4.10;;;2.30;;
77117;SDS011;66072;50.238;19.228;2023-04-15T10:29:30;4.30;;;2.20;;
77117;SDS011;66072;50.238;19.228;2023-04-15T10:31:57;5.00;;;2.80;;
77117;SDS011;66072;50.238;19.228;2023-04-15T10:34:26;4.10;;;2.30;;
77117;SDS011;66072;50.238;19.228;2023-04-15T10:36:54;3.20;;;1.80;;
77117;SDS011;66072;50.238;19.228;2023-04-15T10:42:18;4.40;;;2.40;;
77117;SDS011;66072;50.238;19.228;2023-04-15T10:44:49;3.70;;;1.90;;
77117;SDS011;66072;50.238;19.228;2023-04-15T10:47:18;4.40;;;2.20;;
77117;SDS011;66072;50.238;19.228;2023-04-15T10:49:51;4.20;;;2.30;;
77117;SDS011;66072;50.238;19.228;2023-04-15T10:52:25;3.80;;;2.40;;
77117;SDS011;66072;50.238;19.228;2023-04-15T10:55:11;4.20;;;2.20;;
77117;SDS011;66072;50.238;19.228;2023-04-15T10:57:45;4.20;;;2.20;;
77117;SDS011;66072;50.238;19.228;2023-04-15T11:00:13;5.90;;;2.90;;
77117;SDS011;66072;50.238;19.228;2023-04-15T11:02:52;5.00;;;2.60;;
77117;SDS011;66072;50.238;19.228;2023-04-15T11:08:09;5.40;;;2.60;;
77117;SDS011;66072;50.238;19.228;2023-04-15T11:15:38;4.90;;;2.50;;
77117;SDS011;66072;50.238;19.228;2023-04-15T11:18:16;5.00;;;2.80;;
77117;SDS011;66072;50.238;19.228;2023-04-15T11:20:46;5.20;;;2.60;;
77117;SDS011;66072;50.238;19.228;2023-04-15T11:25:59;4.50;;;2.20;;
77117;SDS011;66072;50.238;19.228;2023-04-15T11:28:29;4.90;;;2.60;;
77117;SDS011;66072;50.238;19.228;2023-04-15T11:30:57;4.60;;;2.20;;
77117;SDS011;66072;50.238;19.228;2023-04-15T11:33:31;4.60;;;2.40;;
77117;SDS011;66072;50.238;19.228;2023-04-15T11:35:59;5.20;;;3.30;;
77117;SDS011;66072;50.238;19.228;2023-04-15T11:38:27;4.60;;;2.70;;
77117;SDS011;66072;50.238;19.228;2023-04-15T11:40:55;5.10;;;2.70;;
77117;SDS011;66072;50.238;19.228;2023-04-15T11:43:23;4.60;;;2.50;;
77117;SDS011;66072;50.238;19.228;2023-04-15T11:45:57;4.10;;;2.30;;
77117;SDS011;66072;50.238;19.228;2023-04-15T11:48:27;5.90;;;2.30;;
77117;SDS011;66072;50.238;19.228;2023-04-15T11:51:00;4.20;;;2.10;;
77117;SDS011;66072;50.238;19.228;2023-04-15T11:54:03;4.90;;;2.70;;
77117;SDS011;66072;50.238;19.228;2023-04-15T11:56:23;4.20;;;2.10;;
77117;SDS011;66072;50.238;19.228;2023-04-15T11:58:53;4.70;;;2.10;;
77117;SDS011;66072;50.238;19.228;2023-04-15T12:01:33;5.00;;;2.30;;
77117;SDS011;66072;50.238;19.228;2023-04-15T12:04:02;5.20;;;2.40;;
77117;SDS011;66072;50.238;19.228;2023-04-15T12:06:38;4.90;;;2.20;;
77117;SDS011;66072;50.238;19.228;2023-04-15T12:16:43;4.70;;;2.60;;
77117;SDS011;66072;50.238;19.228;2023-04-15T12:19:21;5.30;;;3.00;;
77117;SDS011;66072;50.238;19.228;2023-04-15T12:21:52;6.20;;;2.90;;
77117;SDS011;66072;50.238;19.228;2023-04-15T12:24:26;4.70;;;1.90;;
77117;SDS011;66072;50.238;19.228;2023-04-15T12:26:56;3.80;;;2.10;;
77117;SDS011;66072;50.238;19.228;2023-04-15T12:29:28;5.30;;;2.20;;
77117;SDS011;66072;50.238;19.228;2023-04-15T12:31:58;4.80;;;2.10;;
77117;SDS011;66072;50.238;19.228;2023-04-15T12:34:31;3.60;;;2.20;;
77117;SDS011;66072;50.238;19.228;2023-04-15T12:37:04;4.50;;;2.70;;
77117;SDS011;66072;50.238;19.228;2023-04-15T12:39:37;3.50;;;2.00;;
77117;SDS011;66072;50.238;19.228;2023-04-15T12:42:06;4.00;;;2.40;;
77117;SDS011;66072;50.238;19.228;2023-04-15T12:44:35;3.90;;;2.00;;
77117;SDS011;66072;50.238;19.228;2023-04-15T12:47:03;3.60;;;2.10;;
77117;SDS011;66072;50.238;19.228;2023-04-15T12:49:31;3.50;;;1.80;;
77117;SDS011;66072;50.238;19.228;2023-04-15T12:51:59;3.70;;;2.10;;
77117;SDS011;66072;50.238;19.228;2023-04-15T12:54:29;5.00;;;2.20;;
77117;SDS011;66072;50.238;19.228;2023-04-15T12:56:57;4.20;;;2.30;;
77117;SDS011;66072;50.238;19.228;2023-04-15T12:59:25;4.30;;;2.10;;
77117;SDS011;66072;50.238;19.228;2023-04-15T13:01:54;3.50;;;1.80;;
77117;SDS011;66072;50.238;19.228;2023-04-15T13:04:22;3.10;;;1.80;;
77117;SDS011;66072;50.238;19.228;2023-04-15T13:06:50;4.60;;;2.10;;
77117;SDS011;66072;50.238;19.228;2023-04-15T13:09:18;3.50;;;1.70;;
77117;SDS011;66072;50.238;19.228;2023-04-15T13:11:45;2.80;;;1.50;;
77117;SDS011;66072;50.238;19.228;2023-04-15T13:14:13;3.30;;;1.70;;
77117;SDS011;66072;50.238;19.228;2023-04-15T13:16:40;2.90;;;1.50;;
77117;SDS011;66072;50.238;19.228;2023-04-15T13:19:08;2.80;;;1.70;;
77117;SDS011;66072;50.238;19.228;2023-04-15T13:21:35;2.60;;;1.20;;
77117;SDS011;66072;50.238;19.228;2023-04-15T13:24:03;2.80;;;1.50;;
77117;SDS011;66072;50.238;19.228;2023-04-15T13:28:59;3.30;;;1.30;;
77117;SDS011;66072;50.238;19.228;2023-04-15T13:33:55;3.30;;;1.60;;
77117;SDS011;66072;50.238;19.228;2023-04-15T13:36:23;2.50;;;1.20;;
77117;SDS011;66072;50.238;19.228;2023-04-15T13:38:51;2.50;;;1.30;;
77117;SDS011;66072;50.238;19.228;2023-04-15T13:41:19;2.70;;;1.20;;
77117;SDS011;66072;50.238;19.228;2023-04-15T13:43:46;3.30;;;1.40;;
77117;SDS011;66072;50.238;19.228;2023-04-15T13:46:14;3.50;;;1.30;;
77117;SDS011;66072;50.238;19.228;2023-04-15T13:48:42;3.20;;;1.60;;
77117;SDS011;66072;50.238;19.228;2023-04-15T13:51:09;2.40;;;1.30;;
77117;SDS011;66072;50.238;19.228;2023-04-15T13:53:37;2.40;;;1.10;;
77117;SDS011;66072;50.238;19.228;2023-04-15T13:56:06;2.70;;;1.30;;
77117;SDS011;66072;50.238;19.228;2023-04-15T13:58:35;2.50;;;1.20;;
77117;SDS011;66072;50.238;19.228;2023-04-15T14:01:03;3.00;;;1.40;;
77117;SDS011;66072;50.238;19.228;2023-04-15T14:03:33;4.00;;;2.30;;
77117;SDS011;66072;50.238;19.228;2023-04-15T14:06:01;3.60;;;1.80;;
77117;SDS011;66072;50.238;19.228;2023-04-15T14:08:29;2.90;;;2.00;;
77117;SDS011;66072;50.238;19.228;2023-04-15T14:10:56;3.10;;;1.60;;
77117;SDS011;66072;50.238;19.228;2023-04-15T14:13:24;4.70;;;2.60;;
77117;SDS011;66072;50.238;19.228;2023-04-15T14:15:52;3.40;;;2.10;;
77117;SDS011;66072;50.238;19.228;2023-04-15T14:18:19;4.40;;;2.70;;
77117;SDS011;66072;50.238;19.228;2023-04-15T14:20:47;3.10;;;1.60;;
77117;SDS011;66072;50.238;19.228;2023-04-15T14:23:15;3.70;;;2.30;;
77117;SDS011;66072;50.238;19.228;2023-04-15T14:25:42;4.30;;;2.50;;
77117;SDS011;66072;50.238;19.228;2023-04-15T14:28:13;3.30;;;2.00;;
77117;SDS011;66072;50.238;19.228;2023-04-15T14:30:40;3.50;;;1.80;;
77117;SDS011;66072;50.238;19.228;2023-04-15T14:33:08;3.80;;;2.30;;
77117;SDS011;66072;50.238;19.228;2023-04-15T14:35:36;3.80;;;2.30;;
77117;SDS011;66072;50.238;19.228;2023-04-15T14:38:04;3.50;;;2.10;;
77117;SDS011;66072;50.238;19.228;2023-04-15T14:40:32;3.10;;;1.90;;
77117;SDS011;66072;50.238;19.228;2023-04-15T14:42:59;3.30;;;2.00;;
77117;SDS011;66072;50.238;19.228;2023-04-15T14:45:27;2.70;;;1.80;;
77117;SDS011;66072;50.238;19.228;2023-04-15T14:47:56;3.00;;;2.10;;
77117;SDS011;66072;50.238;19.228;2023-04-15T14:50:25;3.10;;;1.70;;
77117;SDS011;66072;50.238;19.228;2023-04-15T14:52:53;3.50;;;1.90;;
77117;SDS011;66072;50.238;19.228;2023-04-15T14:55:20;3.30;;;2.00;;
77117;SDS011;66072;50.238;19.228;2023-04-15T14:57:48;3.00;;;1.90;;
77117;SDS011;66072;50.238;19.228;2023-04-15T15:00:16;3.30;;;1.90;;
77117;SDS011;66072;50.238;19.228;2023-04-15T15:02:43;3.20;;;1.90;;
77117;SDS011;66072;50.238;19.228;2023-04-15T15:05:11;3.20;;;1.60;;
77117;SDS011;66072;50.238;19.228;2023-04-15T15:07:39;2.90;;;1.40;;